Time;durP1;ratioP1;P1;durP2;ratioP2;P2;SDS_P1;SDS_P2;PMS_P1;PMS_P2;Temp;Humidity;BMP_temperature;BMP_pressure;BME280_temperature;BME280_humidity;BME280_pressure;Samples;Min_cycle;Max_cycle;Signal;HPM_P1;HPM_P2
2023/03/06 18:35:55;;;;;;;;;;;;;;;;;;5079899;27;19972;-80
2023/03/06 18:38:20;;;;;;;;;;;;;;;;;;5087649;28;19966;-82
2023/03/06 18:40:46;;;;;;;;;;;;;;;;;;5082578;28;19912;-82
2023/03/06 18:43:11;;;;;;;;;;;;;;;;;;5075515;28;20012;-82
2023/03/06 18:45:37;;;;;;;;;;;;;;;;;;5078157;28;19995;-83
2023/03/06 18:48:03;;;;;;;;;;;;;;;;;;5078608;28;19958;-82
2023/03/06 18:50:28;;;;;;;;;;;;;;;;;;5078666;28;19934;-82
2023/03/06 18:52:54;;;;;;;;;;;;;;;;;;5083716;28;19995;-82
2023/03/06 18:55:19;;;;;;;;;;;;;;;;;;5076212;28;19961;-81
2023/03/06 18:57:44;;;;;;;;;;;;;;;;;;5082015;28;19920;-81
2023/03/06 19:00:09;;;;;;;;;;;;;;;;;;5072031;28;19915;-82
2023/03/06 19:02:34;;;;;;;;;;;;;;;;;;5078222;28;20363;-81
2023/03/06 19:04:59;;;;;;;;;;;;;;;;;;5083404;28;19912;-83
2023/03/06 19:07:25;;;;;;;;;;;;;;;;;;5082997;28;19913;-82
2023/03/06 19:09:50;;;;;;;;;;;;;;;;;;5074261;28;19949;-82
2023/03/06 19:12:16;;;;;;;;;;;;;;;;;;5070224;28;19913;-83
2023/03/06 19:14:41;;;;;;;;;;;;;;;;;;5081055;28;19978;-85
2023/03/06 19:17:06;;;;;;;;;;;;;;;;;;5083165;28;19959;-83
2023/03/06 19:19:32;;;;;;;;;;;;;;;;;;5077615;28;19916;-85
2023/03/06 19:21:57;;;;;;;;;;;;;;;;;;5073456;28;19924;-85
2023/03/06 19:24:22;;;;;;;;;;;;;;;;;;5077410;28;19916;-84
2023/03/06 19:26:47;;;;;;;;;;;;;;;;;;5077854;28;19919;-83
2023/03/06 19:29:12;;;;;;;;;;;;;;;;;;5075451;28;20007;-82
2023/03/06 19:31:37;;;;;;;;;;;;;;;;;;5076890;28;19948;-83
2023/03/06 19:34:03;;;;;;;;;;;;;;;;;;5074421;28;20384;-82
2023/03/06 19:36:29;;;;;;;;;;;;;;;;;;5079972;28;19913;-84
2023/03/06 19:38:55;;;;;;;;;;;;;;;;;;5079749;28;20117;-83
2023/03/06 19:41:20;;;;;;;;;;;;;;;;;;5070791;28;19913;-84
2023/03/06 19:43:48;;;;;;;;;;;;;;;;;;5076926;28;19919;-83
2023/03/06 19:46:13;;;;;;;;;;;;;;;;;;5069828;28;19967;-85
2023/03/06 19:48:45;;;;;;;;;;;;;;;;;;5066136;28;19955;-85
2023/03/06 19:54:00;;;;;;;;;;;;;;;;;;5063743;28;20004;-84
2023/03/06 19:56:25;;;;;;;;;;;;;;;;;;5064030;28;19921;-82
2023/03/06 19:58:50;;;;;;;;;;;;;;;;;;5063427;28;19923;-84
2023/03/06 20:01:15;;;;;;;;;;;;;;;;;;5064317;28;20381;-86
2023/03/06 20:03:41;;;;;;;;;;;;;;;;;;5056301;28;19917;-83
2023/03/06 20:06:07;;;;;;;;;;;;;;;;;;5061528;28;20268;-82
2023/03/06 20:08:36;;;;;;;;;;;;;;;;;;5064700;28;19912;-84
2023/03/06 20:11:01;;;;;;;;;;;;;;;;;;5070381;28;19912;-83
2023/03/06 20:13:38;;;;;;;;;;;;;;;;;;5059675;28;19973;-83
2023/03/06 20:16:03;;;;;;;;;;;;;;;;;;5062360;28;20430;-82
2023/03/06 20:18:31;;;;;;;;;;;;;;;;;;5063058;28;20043;-81
2023/03/06 20:20:57;;;;;;;;;;;;;;;;;;5070634;28;19969;-80
2023/03/06 20:23:22;;;;;;;;;;;;;;;;;;5063970;28;19916;-79
2023/03/06 20:25:47;;;;;;;;;;;;;;;;;;5071300;28;20388;-80
2023/03/06 20:28:12;;;;;;;;;;;;;;;;;;5064003;28;19909;-82
2023/03/06 20:30:37;;;;;;;;;;;;;;;;;;5056051;28;19935;-83
2023/03/06 20:33:03;;;;;;;;;;;;;;;;;;5069316;28;19982;-81
2023/03/06 20:35:28;;;;;;;;;;;;;;;;;;5055702;28;20011;-83
2023/03/06 20:38:05;;;;;;;;;;;;;;;;;;5061979;28;19920;-83
2023/03/06 20:40:33;;;;;;;;;;;;;;;;;;5058350;28;19913;-83
2023/03/06 20:42:58;;;;;;;;;;;;;;;;;;5058498;28;19920;-82
2023/03/06 20:45:23;;;;;;;;;;;;;;;;;;5065273;28;19940;-83
2023/03/06 20:50:37;;;;;;;;;;;;;;;;;;5010436;28;20362;-81
2023/03/06 20:53:02;;;;;;;;;;;;;;;;;;5008979;28;19913;-82
2023/03/06 20:55:27;;;;;;;;;;;;;;;;;;4993772;28;20318;-83
2023/03/06 20:57:53;;;;;;;;;;;;;;;;;;5008268;28;19980;-82
2023/03/06 21:00:24;;;;;;;;;;;;;;;;;;4993419;28;19913;-82
2023/03/06 21:02:49;;;;;;;;;;;;;;;;;;5009481;28;19913;-83
2023/03/06 21:05:14;;;;;;;;;;;;;;;;;;5010400;28;20293;-80
2023/03/06 21:07:45;;;;;;;;;;;;;;;;;;5008553;28;20371;-82
2023/03/06 21:10:13;;;;;;;;;;;;;;;;;;5006155;28;19914;-82
2023/03/06 21:15:28;;;;;;;;;;;;;;;;;;4986678;28;19918;-82
2023/03/06 21:17:56;;;;;;;;;;;;;;;;;;4992447;28;19952;-83
2023/03/06 21:20:24;;;;;;;;;;;;;;;;;;5008260;28;19913;-83
2023/03/06 21:22:52;;;;;;;;;;;;;;;;;;4992278;28;19975;-83
2023/03/06 21:25:26;;;;;;;;;;;;;;;;;;5009796;28;19924;-82
2023/03/06 21:27:52;;;;;;;;;;;;;;;;;;5033230;28;19913;-83
2023/03/06 21:30:17;;;;;;;;;;;;;;;;;;5086520;28;20411;-83
2023/03/06 21:32:42;;;;;;;;;;;;;;;;;;5060816;28;20431;-82
2023/03/06 21:35:08;;;;;;;;;;;;;;;;;;5074990;28;20236;-83
2023/03/06 21:37:33;;;;;;;;;;;;;;;;;;5063036;28;20364;-83
2023/03/06 21:39:58;;;;;;;;;;;;;;;;;;5061481;28;20026;-83
2023/03/06 21:42:23;;;;;;;;;;;;;;;;;;5059853;28;19931;-83
2023/03/06 21:44:49;;;;;;;;;;;;;;;;;;5056908;28;19916;-82
2023/03/06 21:47:14;;;;;;;;;;;;;;;;;;5056166;28;19912;-81
2023/03/06 21:49:39;;;;;;;;;;;;;;;;;;5066864;28;20406;-82
2023/03/06 21:52:04;;;;;;;;;;;;;;;;;;5065157;28;19913;-81
2023/03/06 21:54:31;;;;;;;;;;;;;;;;;;5068439;28;19913;-82
2023/03/06 21:56:57;;;;;;;;;;;;;;;;;;5062748;28;20275;-82
2023/03/06 21:59:24;;;;;;;;;;;;;;;;;;5062412;28;20372;-82
2023/03/06 22:01:49;;;;;;;;;;;;;;;;;;5061326;28;20096;-84
2023/03/06 22:04:15;;;;;;;;;;;;;;;;;;5062651;28;19959;-83
2023/03/06 22:06:42;;;;;;;;;;;;;;;;;;5061301;28;19998;-84
2023/03/06 22:09:16;;;;;;;;;;;;;;;;;;5067980;28;19923;-83
2023/03/06 22:11:44;;;;;;;;;;;;;;;;;;5069587;28;20003;-83
2023/03/06 22:14:09;;;;;;;;;;;;;;;;;;5055159;28;19923;-84
2023/03/06 22:16:34;;;;;;;;;;;;;;;;;;5064065;28;19999;-83
2023/03/06 22:18:59;;;;;;;;;;;;;;;;;;5063811;28;20406;-83
2023/03/06 22:21:24;;;;;;;;;;;;;;;;;;5061622;28;19959;-84
2023/03/06 22:23:50;;;;;;;;;;;;;;;;;;5066271;28;19913;-83
2023/03/06 22:26:15;;;;;;;;;;;;;;;;;;5057503;28;19927;-83
2023/03/06 22:28:40;;;;;;;;;;;;;;;;;;5065980;28;19913;-84
2023/03/06 22:31:05;;;;;;;;;;;;;;;;;;5062545;28;19919;-85
2023/03/06 22:33:30;;;;;;;;;;;;;;;;;;5060970;28;19913;-85
2023/03/06 22:35:55;;;;;;;;;;;;;;;;;;5057898;28;19917;-85
2023/03/06 22:38:23;;;;;;;;;;;;;;;;;;5066085;28;19978;-84
2023/03/06 22:40:50;;;;;;;;;;;;;;;;;;5059352;28;19919;-84
2023/03/06 22:43:16;;;;;;;;;;;;;;;;;;5058616;28;19936;-83
2023/03/06 22:45:41;;;;;;;;;;;;;;;;;;5057143;28;20385;-84
2023/03/06 22:48:06;;;;;;;;;;;;;;;;;;5063895;28;19913;-84
2023/03/06 22:50:31;;;;;;;;;;;;;;;;;;5061995;28;19912;-83
2023/03/06 22:52:56;;;;;;;;;;;;;;;;;;5060973;28;20493;-84
2023/03/06 22:55:22;;;;;;;;;;;;;;;;;;5062892;28;19946;-84
2023/03/06 22:57:47;;;;;;;;;;;;;;;;;;5064448;28;19912;-83
2023/03/06 23:00:13;;;;;;;;;;;;;;;;;;5068282;28;19920;-84
2023/03/06 23:02:38;;;;;;;;;;;;;;;;;;5061461;28;19935;-84
2023/03/06 23:05:03;;;;;;;;;;;;;;;;;;5067567;28;20292;-85
2023/03/06 23:07:29;;;;;;;;;;;;;;;;;;5068636;28;19917;-85
2023/03/06 23:09:54;;;;;;;;;;;;;;;;;;5068238;28;19915;-84
2023/03/06 23:12:19;;;;;;;;;;;;;;;;;;5068864;28;20383;-85
2023/03/06 23:14:48;;;;;;;;;;;;;;;;;;5059769;28;19970;-84
2023/03/06 23:17:13;;;;;;;;;;;;;;;;;;5058513;28;20434;-83
2023/03/06 23:19:38;;;;;;;;;;;;;;;;;;5057977;28;19917;-84
2023/03/06 23:22:03;;;;;;;;;;;;;;;;;;5067194;28;19913;-86
2023/03/06 23:24:28;;;;;;;;;;;;;;;;;;5069545;28;20367;-86
2023/03/06 23:26:54;;;;;;;;;;;;;;;;;;5068484;28;20368;-86
2023/03/06 23:29:19;;;;;;;;;;;;;;;;;;5066558;28;19919;-83
2023/03/06 23:31:44;;;;;;;;;;;;;;;;;;5066391;28;20116;-85
2023/03/06 23:34:10;;;;;;;;;;;;;;;;;;5060730;28;19920;-84
2023/03/06 23:36:35;;;;;;;;;;;;;;;;;;5072952;28;19967;-84
2023/03/06 23:39:00;;;;;;;;;;;;;;;;;;5070646;28;20254;-84
2023/03/06 23:41:25;;;;;;;;;;;;;;;;;;5064244;28;20497;-85
2023/03/06 23:43:51;;;;;;;;;;;;;;;;;;5064043;28;20395;-84
2023/03/06 23:46:16;;;;;;;;;;;;;;;;;;5060641;28;19917;-85
2023/03/06 23:48:41;;;;;;;;;;;;;;;;;;5060014;28;19912;-84
2023/03/06 23:51:06;;;;;;;;;;;;;;;;;;5059389;28;20008;-84
2023/03/06 23:53:31;;;;;;;;;;;;;;;;;;5063528;28;19913;-84
2023/03/06 23:55:56;;;;;;;;;;;;;;;;;;5072525;28;19991;-84
2023/03/06 23:58:21;;;;;;;;;;;;;;;;;;5073187;28;19923;-83
